createdAt,value
2023-03-11T00:18:09.110Z,62.05
2023-03-11T00:20:39.826Z,62.12
2023-03-11T00:23:09.085Z,62.22
2023-03-11T00:25:39.156Z,62.16
2023-03-11T00:28:07.615Z,62.11
2023-03-11T00:30:35.985Z,62.10
2023-03-11T00:33:04.295Z,62.18
2023-03-11T00:35:34.139Z,62.18
2023-03-11T00:38:08.118Z,61.98
2023-03-11T00:40:36.715Z,62.09
2023-03-11T00:43:04.869Z,62.15
2023-03-11T00:45:35.125Z,62.16
2023-03-11T00:48:03.487Z,62.11
2023-03-11T00:50:33.894Z,62.15
2023-03-11T00:53:03.091Z,62.30
2023-03-11T00:55:33.451Z,62.76
2023-03-11T00:58:05.486Z,62.63
2023-03-11T01:00:39.934Z,62.88
2023-03-11T01:03:08.691Z,62.80
2023-03-11T01:05:36.678Z,62.51
2023-03-11T01:08:05.342Z,62.84
2023-03-11T01:10:34.382Z,62.12
2023-03-11T01:13:03.440Z,62.44
2023-03-11T01:15:35.060Z,62.27
2023-03-11T01:18:04.702Z,62.56
2023-03-11T01:20:35.237Z,62.18
2023-03-11T01:23:03.406Z,62.37
2023-03-11T01:25:31.327Z,62.81
2023-03-11T01:28:00.153Z,62.77
2023-03-11T01:30:30.260Z,62.69
2023-03-11T01:32:58.573Z,62.62
2023-03-11T01:35:28.864Z,62.78
2023-03-11T01:37:57.956Z,62.87
2023-03-11T01:40:32.171Z,62.98
2023-03-11T01:43:06.182Z,62.50
2023-03-11T01:45:49.731Z,62.73
2023-03-11T01:48:20.064Z,62.98
2023-03-11T01:50:50.795Z,63.00
2023-03-11T01:53:18.815Z,62.84
2023-03-11T01:55:48.475Z,62.92
2023-03-11T01:58:23.792Z,62.72
2023-03-11T02:00:52.890Z,62.98
2023-03-11T02:03:34.067Z,62.98
2023-03-11T02:06:06.980Z,63.22
2023-03-11T02:08:35.856Z,62.82
2023-03-11T02:11:08.531Z,63.06
2023-03-11T02:13:37.517Z,63.39
2023-03-11T02:16:06.053Z,63.42
2023-03-11T02:18:34.380Z,63.39
2023-03-11T02:21:24.264Z,63.29
2023-03-11T02:24:16.193Z,63.28
2023-03-11T02:26:52.966Z,63.28
2023-03-11T02:29:23.187Z,62.97
2023-03-11T02:33:00.010Z,62.75
2023-03-11T02:35:30.165Z,63.03
2023-03-11T02:37:58.508Z,62.88
2023-03-11T02:40:52.150Z,62.66
2023-03-11T02:43:27.651Z,62.91
2023-03-11T02:45:56.801Z,62.60
2023-03-11T02:48:25.457Z,62.64
2023-03-11T02:50:53.829Z,62.51
2023-03-11T02:53:22.737Z,62.39
2023-03-11T02:55:50.608Z,62.54
2023-03-11T02:58:18.507Z,62.52
2023-03-11T03:00:46.719Z,62.41
2023-03-11T03:03:15.940Z,62.30
2023-03-11T03:05:44.035Z,62.27
2023-03-11T03:08:11.892Z,62.16
2023-03-11T03:10:40.255Z,62.16
2023-03-11T03:13:08.340Z,62.10
2023-03-11T03:15:36.373Z,62.37
2023-03-11T03:18:04.493Z,62.47
2023-03-11T03:20:32.849Z,62.37
2023-03-11T03:23:02.792Z,62.43
2023-03-11T03:25:32.397Z,62.42
2023-03-11T03:28:03.924Z,62.46
2023-03-11T03:30:33.831Z,62.27
2023-03-11T03:33:01.905Z,62.31
2023-03-11T03:35:30.775Z,62.22
2023-03-11T03:38:11.880Z,62.40
2023-03-11T03:40:40.113Z,62.61
2023-03-11T03:43:08.044Z,62.33
2023-03-11T03:45:36.345Z,62.36
2023-03-11T03:48:05.147Z,62.37
2023-03-11T03:50:35.009Z,62.43
2023-03-11T03:53:03.055Z,62.32
2023-03-11T03:55:30.881Z,62.63
2023-03-11T03:57:59.107Z,62.39
2023-03-11T04:00:29.635Z,62.64
2023-03-11T04:02:59.438Z,62.72
2023-03-11T04:05:34.094Z,62.61
2023-03-11T04:08:02.557Z,62.52
2023-03-11T04:10:30.635Z,62.34
2023-03-11T04:12:59.236Z,62.39
2023-03-11T04:15:27.273Z,62.23
2023-03-11T04:17:55.208Z,62.34
2023-03-11T04:20:23.960Z,62.33
2023-03-11T04:22:52.509Z,62.44
2023-03-11T04:25:21.256Z,62.42
2023-03-11T04:27:50.226Z,62.58
2023-03-11T04:30:18.770Z,62.48
2023-03-11T04:32:47.648Z,62.54
2023-03-11T04:35:15.951Z,62.66
2023-03-11T04:37:44.086Z,62.78
2023-03-11T04:40:12.866Z,62.78
2023-03-11T04:42:41.069Z,62.71
2023-03-11T04:45:11.310Z,62.60
2023-03-11T04:47:39.916Z,62.43
2023-03-11T04:50:08.587Z,62.33
2023-03-11T04:52:36.641Z,62.35
2023-03-11T04:55:05.326Z,62.46
2023-03-11T04:57:33.690Z,62.58
2023-03-11T05:00:02.506Z,62.47
2023-03-11T05:02:31.312Z,62.40
2023-03-11T05:05:00.713Z,62.44
2023-03-11T05:07:28.950Z,62.40
2023-03-11T05:09:57.213Z,62.42
2023-03-11T05:12:25.192Z,62.38
2023-03-11T05:14:53.950Z,62.48
2023-03-11T05:17:22.481Z,62.26
2023-03-11T05:19:53.889Z,62.39
2023-03-11T05:22:28.339Z,62.30
2023-03-11T05:24:56.217Z,62.44
2023-03-11T05:27:24.598Z,62.19
2023-03-11T05:29:54.730Z,62.30
2023-03-11T05:32:24.044Z,62.29
2023-03-11T05:34:52.646Z,62.37
2023-03-11T05:37:20.775Z,62.31
2023-03-11T05:39:49.366Z,62.43
2023-03-11T05:42:18.152Z,62.43
2023-03-11T05:44:47.577Z,62.45
2023-03-11T05:47:17.394Z,62.32
2023-03-11T05:49:48.904Z,62.38
2023-03-11T05:52:18.014Z,62.28
2023-03-11T05:54:50.463Z,62.29
2023-03-11T05:57:19.323Z,62.42
2023-03-11T05:59:47.155Z,62.35
2023-03-11T06:02:15.698Z,62.54
2023-03-11T06:04:44.593Z,62.53
2023-03-11T06:07:14.941Z,62.51
2023-03-11T06:09:43.715Z,62.70
2023-03-11T06:12:14.616Z,62.92
2023-03-11T06:15:02.592Z,62.95
2023-03-11T06:17:30.770Z,63.01
2023-03-11T06:19:59.224Z,63.31
2023-03-11T06:22:27.301Z,63.24
2023-03-11T06:24:55.886Z,63.22
2023-03-11T06:27:24.976Z,63.12
2023-03-11T06:29:54.573Z,63.21
2023-03-11T06:32:23.304Z,63.34
2023-03-11T06:34:53.121Z,63.33
2023-03-11T06:37:23.790Z,63.29
2023-03-11T06:39:55.562Z,63.32
2023-03-11T06:42:26.939Z,63.17
2023-03-11T06:44:56.753Z,63.04
2023-03-11T06:47:25.029Z,62.96
2023-03-11T06:49:53.713Z,63.00
2023-03-11T06:52:21.577Z,62.86
2023-03-11T06:54:49.945Z,62.80
2023-03-11T06:57:18.416Z,62.71
2023-03-11T06:59:47.691Z,62.55
2023-03-11T07:02:17.130Z,62.49
2023-03-11T07:04:45.110Z,62.42
2023-03-11T07:07:13.261Z,62.40
2023-03-11T07:09:41.415Z,62.33
2023-03-11T07:12:10.381Z,62.29
2023-03-11T07:14:38.515Z,62.25
2023-03-11T07:17:06.883Z,62.31
2023-03-11T07:19:42.844Z,62.30
2023-03-11T07:22:11.017Z,62.35
2023-03-11T07:24:38.967Z,62.41
2023-03-11T07:27:07.055Z,62.42
2023-03-11T07:29:35.013Z,62.56
2023-03-11T07:32:03.041Z,62.64
2023-03-11T07:34:33.038Z,62.64
2023-03-11T07:37:01.481Z,62.62
2023-03-11T07:39:29.685Z,62.48
2023-03-11T07:41:57.642Z,62.48
2023-03-11T07:44:32.103Z,62.42
2023-03-11T07:47:06.217Z,62.37
2023-03-11T07:49:34.436Z,62.29
2023-03-11T07:52:02.527Z,62.19
2023-03-11T07:54:30.404Z,62.23
2023-03-11T07:57:00.483Z,62.07
2023-03-11T07:59:29.330Z,62.07
2023-03-11T08:01:57.975Z,61.81
2023-03-11T08:04:25.941Z,61.78
2023-03-11T08:06:53.984Z,61.87
2023-03-11T08:09:22.285Z,61.87
2023-03-11T08:11:50.336Z,61.84
2023-03-11T08:14:18.163Z,61.91
2023-03-11T08:16:46.003Z,61.92
2023-03-11T08:19:14.775Z,61.81
2023-03-11T08:21:42.740Z,61.93
2023-03-11T08:24:13.375Z,61.94
2023-03-11T08:26:41.727Z,61.84
2023-03-11T08:29:09.654Z,61.80
2023-03-11T08:31:37.807Z,61.72
2023-03-11T08:34:08.642Z,61.73
2023-03-11T08:36:36.700Z,61.73
2023-03-11T08:39:05.187Z,61.70
2023-03-11T08:41:33.143Z,61.73
2023-03-11T08:44:01.526Z,61.65
2023-03-11T08:46:33.965Z,61.69
2023-03-11T08:49:03.469Z,61.70
2023-03-11T08:51:33.613Z,61.67
2023-03-11T08:54:03.473Z,61.56
2023-03-11T08:56:31.841Z,61.60
2023-03-11T08:58:59.723Z,61.56
2023-03-11T09:01:30.068Z,61.48
2023-03-11T09:03:58.256Z,61.35
